sensor_id;sensor_type;location;lat;lon;timestamp;pressure;altitude;pressure_sealevel;temperature;humidity
11114;BME280;5610;52.154;9.198;2022-12-07T00:02:39;100590.69;;;5.74;100.00
11114;BME280;5610;52.154;9.198;2022-12-07T00:05:24;100594.97;;;5.76;100.00
11114;BME280;5610;52.154;9.198;2022-12-07T00:08:10;100596.84;;;5.74;100.00
11114;BME280;5610;52.154;9.198;2022-12-07T00:11:00;100589.56;;;5.79;100.00
11114;BME280;5610;52.154;9.198;2022-12-07T00:13:47;100591.16;;;5.84;100.00
11114;BME280;5610;52.154;9.198;2022-12-07T00:16:33;100590.97;;;5.88;100.00
11114;BME280;5610;52.154;9.198;2022-12-07T00:19:19;100581.94;;;5.94;100.00
11114;BME280;5610;52.154;9.198;2022-12-07T00:22:04;100572.28;;;5.93;100.00
11114;BME280;5610;52.154;9.198;2022-12-07T00:24:50;100564.41;;;5.91;100.00
11114;BME280;5610;52.154;9.198;2022-12-07T00:27:36;100565.25;;;5.71;100.00
11114;BME280;5610;52.154;9.198;2022-12-07T00:30:22;100579.94;;;5.78;100.00
11114;BME280;5610;52.154;9.198;2022-12-07T00:33:07;100563.31;;;5.75;100.00
11114;BME280;5610;52.154;9.198;2022-12-07T00:35:55;100572.13;;;5.75;100.00
11114;BME280;5610;52.154;9.198;2022-12-07T00:38:40;100564.09;;;5.77;100.00
11114;BME280;5610;52.154;9.198;2022-12-07T00:41:27;100562.22;;;5.81;100.00
11114;BME280;5610;52.154;9.198;2022-12-07T00:44:14;100559.69;;;5.77;100.00
11114;BME280;5610;52.154;9.198;2022-12-07T00:46:59;100559.63;;;5.79;100.00
11114;BME280;5610;52.154;9.198;2022-12-07T00:49:44;100543.97;;;5.74;100.00
11114;BME280;5610;52.154;9.198;2022-12-07T00:52:29;100538.00;;;5.69;100.00
11114;BME280;5610;52.154;9.198;2022-12-07T00:55:14;100546.41;;;5.79;100.00
11114;BME280;5610;52.154;9.198;2022-12-07T00:58:00;100547.28;;;5.79;100.00
11114;BME280;5610;52.154;9.198;2022-12-07T01:00:46;100536.63;;;5.81;100.00
11114;BME280;5610;52.154;9.198;2022-12-07T01:03:31;100537.34;;;5.85;100.00
11114;BME280;5610;52.154;9.198;2022-12-07T01:06:18;100541.50;;;5.90;100.00
11114;BME280;5610;52.154;9.198;2022-12-07T01:09:04;100541.56;;;5.89;100.00
11114;BME280;5610;52.154;9.198;2022-12-07T01:11:50;100541.56;;;5.89;100.00
11114;BME280;5610;52.154;9.198;2022-12-07T01:14:35;100539.75;;;5.91;100.00
11114;BME280;5610;52.154;9.198;2022-12-07T01:17:22;100550.06;;;5.97;100.00
11114;BME280;5610;52.154;9.198;2022-12-07T01:20:08;100540.56;;;5.93;100.00
11114;BME280;5610;52.154;9.198;2022-12-07T01:22:54;100534.19;;;5.97;100.00
11114;BME280;5610;52.154;9.198;2022-12-07T01:25:39;100526.56;;;5.89;100.00
11114;BME280;5610;52.154;9.198;2022-12-07T01:28:25;100533.53;;;5.92;100.00
11114;BME280;5610;52.154;9.198;2022-12-07T01:31:12;100539.84;;;5.88;100.00
11114;BME280;5610;52.154;9.198;2022-12-07T01:34:00;100536.91;;;5.95;100.00
11114;BME280;5610;52.154;9.198;2022-12-07T01:36:45;100539.69;;;5.92;100.00
11114;BME280;5610;52.154;9.198;2022-12-07T01:39:31;100538.06;;;5.88;100.00
11114;BME280;5610;52.154;9.198;2022-12-07T01:42:17;100538.22;;;5.85;100.00
11114;BME280;5610;52.154;9.198;2022-12-07T01:45:38;100528.75;;;5.79;100.00
11114;BME280;5610;52.154;9.198;2022-12-07T01:48:26;100543.44;;;5.87;100.00
11114;BME280;5610;52.154;9.198;2022-12-07T01:51:14;100527.56;;;5.87;100.00
11114;BME280;5610;52.154;9.198;2022-12-07T01:54:00;100535.34;;;5.90;100.00
11114;BME280;5610;52.154;9.198;2022-12-07T01:56:49;100532.78;;;5.88;100.00
11114;BME280;5610;52.154;9.198;2022-12-07T01:59:36;100532.25;;;5.80;100.00
11114;BME280;5610;52.154;9.198;2022-12-07T02:02:24;100526.66;;;5.67;100.00
11114;BME280;5610;52.154;9.198;2022-12-07T02:05:12;100529.81;;;5.75;100.00
11114;BME280;5610;52.154;9.198;2022-12-07T02:07:59;100535.25;;;5.72;100.00
11114;BME280;5610;52.154;9.198;2022-12-07T02:10:45;100532.97;;;5.63;100.00
11114;BME280;5610;52.154;9.198;2022-12-07T02:13:32;100525.78;;;5.67;100.00
11114;BME280;5610;52.154;9.198;2022-12-07T02:16:25;100517.53;;;5.54;100.00
11114;BME280;5610;52.154;9.198;2022-12-07T02:22:51;100522.19;;;5.47;100.00
11114;BME280;5610;52.154;9.198;2022-12-07T02:29:10;100519.81;;;5.41;100.00
11114;BME280;5610;52.154;9.198;2022-12-07T02:32:03;100509.50;;;5.35;100.00
11114;BME280;5610;52.154;9.198;2022-12-07T02:34:55;100512.88;;;5.39;100.00
11114;BME280;5610;52.154;9.198;2022-12-07T02:37:50;100511.50;;;5.30;100.00
11114;BME280;5610;52.154;9.198;2022-12-07T02:40:40;100519.19;;;5.36;100.00
11114;BME280;5610;52.154;9.198;2022-12-07T02:43:28;100502.50;;;5.34;100.00
11114;BME280;5610;52.154;9.198;2022-12-07T02:46:20;100503.56;;;5.30;100.00
11114;BME280;5610;52.154;9.198;2022-12-07T02:49:07;100494.66;;;5.33;100.00
11114;BME280;5610;52.154;9.198;2022-12-07T02:51:53;100494.41;;;5.39;100.00
11114;BME280;5610;52.154;9.198;2022-12-07T02:54:38;100496.56;;;5.29;100.00
11114;BME280;5610;52.154;9.198;2022-12-07T02:57:47;100488.66;;;5.29;100.00
11114;BME280;5610;52.154;9.198;2022-12-07T03:00:44;100493.88;;;5.31;100.00
11114;BME280;5610;52.154;9.198;2022-12-07T03:03:35;100498.63;;;5.22;100.00
11114;BME280;5610;52.154;9.198;2022-12-07T03:06:27;100495.03;;;5.23;100.00
11114;BME280;5610;52.154;9.198;2022-12-07T03:09:20;100500.78;;;5.33;100.00
11114;BME280;5610;52.154;9.198;2022-12-07T03:12:12;100496.00;;;5.21;100.00
11114;BME280;5610;52.154;9.198;2022-12-07T03:15:03;100492.41;;;5.23;100.00
11114;BME280;5610;52.154;9.198;2022-12-07T03:17:52;100494.50;;;5.15;100.00
11114;BME280;5610;52.154;9.198;2022-12-07T03:20:42;100490.63;;;5.24;100.00
11114;BME280;5610;52.154;9.198;2022-12-07T03:23:27;100487.13;;;5.23;100.00
11114;BME280;5610;52.154;9.198;2022-12-07T03:26:15;100489.00;;;5.20;100.00
11114;BME280;5610;52.154;9.198;2022-12-07T03:29:05;100492.84;;;5.13;100.00
11114;BME280;5610;52.154;9.198;2022-12-07T03:31:56;100492.75;;;5.14;100.00
11114;BME280;5610;52.154;9.198;2022-12-07T03:34:47;100493.69;;;5.13;100.00
11114;BME280;5610;52.154;9.198;2022-12-07T03:37:38;100496.53;;;5.09;100.00
11114;BME280;5610;52.154;9.198;2022-12-07T03:40:29;100489.25;;;4.93;100.00
11114;BME280;5610;52.154;9.198;2022-12-07T03:43:17;100489.91;;;4.99;100.00
11114;BME280;5610;52.154;9.198;2022-12-07T03:46:09;100488.72;;;5.06;100.00
11114;BME280;5610;52.154;9.198;2022-12-07T03:49:05;100493.22;;;5.04;100.00
11114;BME280;5610;52.154;9.198;2022-12-07T03:51:55;100488.88;;;5.03;100.00
11114;BME280;5610;52.154;9.198;2022-12-07T03:54:47;100488.97;;;5.00;100.00
11114;BME280;5610;52.154;9.198;2022-12-07T03:57:34;100490.03;;;4.95;100.00
11114;BME280;5610;52.154;9.198;2022-12-07T04:00:21;100495.25;;;4.97;100.00
11114;BME280;5610;52.154;9.198;2022-12-07T04:03:07;100484.84;;;4.94;100.00
11114;BME280;5610;52.154;9.198;2022-12-07T04:05:52;100484.22;;;4.87;100.00
11114;BME280;5610;52.154;9.198;2022-12-07T04:08:38;100488.56;;;4.88;100.00
11114;BME280;5610;52.154;9.198;2022-12-07T04:11:24;100484.25;;;4.86;100.00
11114;BME280;5610;52.154;9.198;2022-12-07T04:14:09;100484.00;;;4.92;100.00
11114;BME280;5610;52.154;9.198;2022-12-07T04:17:03;100482.75;;;4.80;100.00
11114;BME280;5610;52.154;9.198;2022-12-07T04:19:48;100488.38;;;4.93;100.00
11114;BME280;5610;52.154;9.198;2022-12-07T04:22:34;100487.41;;;4.95;100.00
11114;BME280;5610;52.154;9.198;2022-12-07T04:25:19;100486.28;;;5.01;100.00
11114;BME280;5610;52.154;9.198;2022-12-07T04:28:05;100482.47;;;5.08;100.00
11114;BME280;5610;52.154;9.198;2022-12-07T04:30:51;100495.28;;;5.17;100.00
11114;BME280;5610;52.154;9.198;2022-12-07T04:33:36;100501.69;;;5.12;100.00
11114;BME280;5610;52.154;9.198;2022-12-07T04:36:21;100499.72;;;5.17;100.00
11114;BME280;5610;52.154;9.198;2022-12-07T04:39:08;100490.00;;;5.17;100.00
11114;BME280;5610;52.154;9.198;2022-12-07T04:41:53;100489.75;;;5.23;100.00
11114;BME280;5610;52.154;9.198;2022-12-07T04:44:40;100489.09;;;5.18;100.00
11114;BME280;5610;52.154;9.198;2022-12-07T04:47:25;100486.03;;;5.28;100.00
11114;BME280;5610;52.154;9.198;2022-12-07T04:50:10;100487.97;;;5.24;100.00
11114;BME280;5610;52.154;9.198;2022-12-07T04:52:56;100483.41;;;5.28;100.00
11114;BME280;5610;52.154;9.198;2022-12-07T04:55:42;100491.63;;;5.21;100.00
11114;BME280;5610;52.154;9.198;2022-12-07T04:58:27;100485.41;;;5.22;100.00
11114;BME280;5610;52.154;9.198;2022-12-07T05:01:14;100475.38;;;5.31;100.00
11114;BME280;5610;52.154;9.198;2022-12-07T05:04:00;100476.34;;;5.28;100.00
11114;BME280;5610;52.154;9.198;2022-12-07T05:06:46;100476.22;;;5.31;100.00
11114;BME280;5610;52.154;9.198;2022-12-07T05:09:31;100479.81;;;5.30;100.00
11114;BME280;5610;52.154;9.198;2022-12-07T05:12:16;100486.34;;;5.21;100.00
11114;BME280;5610;52.154;9.198;2022-12-07T05:15:01;100473.13;;;5.21;100.00
11114;BME280;5610;52.154;9.198;2022-12-07T05:17:48;100470.84;;;5.12;100.00
11114;BME280;5610;52.154;9.198;2022-12-07T05:20:33;100467.28;;;5.13;100.00
11114;BME280;5610;52.154;9.198;2022-12-07T05:23:18;100477.38;;;5.04;100.00
11114;BME280;5610;52.154;9.198;2022-12-07T05:26:04;100471.88;;;4.88;100.00
11114;BME280;5610;52.154;9.198;2022-12-07T05:28:52;100475.16;;;4.93;100.00
11114;BME280;5610;52.154;9.198;2022-12-07T05:31:38;100486.72;;;4.90;100.00
11114;BME280;5610;52.154;9.198;2022-12-07T05:34:25;100481.91;;;5.00;100.00
11114;BME280;5610;52.154;9.198;2022-12-07T05:37:10;100485.47;;;4.99;100.00
11114;BME280;5610;52.154;9.198;2022-12-07T05:39:55;100473.69;;;5.08;100.00
11114;BME280;5610;52.154;9.198;2022-12-07T05:42:41;100477.31;;;5.05;100.00
11114;BME280;5610;52.154;9.198;2022-12-07T05:45:26;100473.75;;;5.06;100.00
11114;BME280;5610;52.154;9.198;2022-12-07T05:48:12;100477.38;;;5.04;100.00
11114;BME280;5610;52.154;9.198;2022-12-07T05:50:58;100462.31;;;5.06;100.00
11114;BME280;5610;52.154;9.198;2022-12-07T05:53:44;100473.41;;;5.14;100.00
11114;BME280;5610;52.154;9.198;2022-12-07T05:56:29;100467.53;;;5.07;100.00
11114;BME280;5610;52.154;9.198;2022-12-07T05:59:15;100470.75;;;5.15;100.00
11114;BME280;5610;52.154;9.198;2022-12-07T06:02:13;100468.09;;;5.15;100.00
11114;BME280;5610;52.154;9.198;2022-12-07T06:04:59;100455.41;;;5.03;100.00
11114;BME280;5610;52.154;9.198;2022-12-07T06:07:46;100461.41;;;5.27;100.00
11114;BME280;5610;52.154;9.198;2022-12-07T06:10:31;100461.69;;;5.21;100.00
11114;BME280;5610;52.154;9.198;2022-12-07T06:13:16;100461.38;;;5.29;100.00
11114;BME280;5610;52.154;9.198;2022-12-07T06:16:01;100453.16;;;5.35;100.00
11114;BME280;5610;52.154;9.198;2022-12-07T06:18:46;100462.00;;;5.34;100.00
11114;BME280;5610;52.154;9.198;2022-12-07T06:21:31;100468.75;;;5.20;100.00
11114;BME280;5610;52.154;9.198;2022-12-07T06:24:18;100470.19;;;5.28;100.00
11114;BME280;5610;52.154;9.198;2022-12-07T06:27:03;100466.44;;;5.33;100.00
11114;BME280;5610;52.154;9.198;2022-12-07T06:29:48;100471.88;;;5.30;100.00
11114;BME280;5610;52.154;9.198;2022-12-07T06:32:34;100476.31;;;5.30;100.00
11114;BME280;5610;52.154;9.198;2022-12-07T06:35:19;100476.81;;;5.17;100.00
11114;BME280;5610;52.154;9.198;2022-12-07T06:38:04;100468.22;;;5.33;100.00
11114;BME280;5610;52.154;9.198;2022-12-07T06:40:50;100457.47;;;5.17;100.00
11114;BME280;5610;52.154;9.198;2022-12-07T06:43:36;100472.19;;;5.22;100.00
11114;BME280;5610;52.154;9.198;2022-12-07T06:46:21;100477.59;;;5.19;100.00
11114;BME280;5610;52.154;9.198;2022-12-07T06:49:06;100476.19;;;5.11;100.00
11114;BME280;5610;52.154;9.198;2022-12-07T06:51:51;100485.59;;;5.18;100.00
11114;BME280;5610;52.154;9.198;2022-12-07T06:54:36;100484.38;;;5.05;100.00
11114;BME280;5610;52.154;9.198;2022-12-07T06:57:23;100484.31;;;5.06;100.00
11114;BME280;5610;52.154;9.198;2022-12-07T07:00:09;100491.06;;;5.13;100.00
11114;BME280;5610;52.154;9.198;2022-12-07T07:02:55;100478.22;;;5.04;100.00
11114;BME280;5610;52.154;9.198;2022-12-07T07:05:41;100491.13;;;5.12;100.00
11114;BME280;5610;52.154;9.198;2022-12-07T07:08:26;100488.66;;;5.07;100.00
11114;BME280;5610;52.154;9.198;2022-12-07T07:11:11;100487.75;;;5.08;100.00
11114;BME280;5610;52.154;9.198;2022-12-07T07:13:58;100485.38;;;5.02;100.00
11114;BME280;5610;52.154;9.198;2022-12-07T07:16:45;100497.47;;;5.08;100.00
11114;BME280;5610;52.154;9.198;2022-12-07T07:19:31;100485.53;;;4.97;100.00
11114;BME280;5610;52.154;9.198;2022-12-07T07:22:16;100486.22;;;5.03;100.00
11114;BME280;5610;52.154;9.198;2022-12-07T07:25:01;100484.75;;;4.95;100.00
11114;BME280;5610;52.154;9.198;2022-12-07T07:27:47;100481.69;;;4.84;100.00
11114;BME280;5610;52.154;9.198;2022-12-07T07:30:33;100493.84;;;4.66;100.00
11114;BME280;5610;52.154;9.198;2022-12-07T07:33:18;100491.88;;;4.72;100.00
11114;BME280;5610;52.154;9.198;2022-12-07T07:36:04;100492.78;;;4.71;100.00
11114;BME280;5610;52.154;9.198;2022-12-07T07:38:50;100500.59;;;4.74;100.00
11114;BME280;5610;52.154;9.198;2022-12-07T07:41:35;100503.72;;;4.83;100.00
11114;BME280;5610;52.154;9.198;2022-12-07T07:44:20;100507.91;;;4.89;100.00
11114;BME280;5610;52.154;9.198;2022-12-07T07:47:07;100509.94;;;4.82;100.00
11114;BME280;5610;52.154;9.198;2022-12-07T07:49:52;100515.75;;;4.90;100.00
11114;BME280;5610;52.154;9.198;2022-12-07T07:52:38;100515.44;;;4.98;100.00
11114;BME280;5610;52.154;9.198;2022-12-07T07:55:23;100519.56;;;5.05;100.00
11114;BME280;5610;52.154;9.198;2022-12-07T07:58:08;100517.91;;;5.03;100.00
11114;BME280;5610;52.154;9.198;2022-12-07T08:00:53;100505.81;;;4.97;100.00
11114;BME280;5610;52.154;9.198;2022-12-07T08:03:40;100512.63;;;5.03;100.00
11114;BME280;5610;52.154;9.198;2022-12-07T08:06:25;100502.56;;;4.90;100.00
11114;BME280;5610;52.154;9.198;2022-12-07T08:09:11;100514.03;;;5.11;100.00
11114;BME280;5610;52.154;9.198;2022-12-07T08:11:57;100522.38;;;5.22;100.00
11114;BME280;5610;52.154;9.198;2022-12-07T08:14:42;100520.97;;;5.36;100.00
11114;BME280;5610;52.154;9.198;2022-12-07T08:17:27;100528.81;;;5.37;100.00
11114;BME280;5610;52.154;9.198;2022-12-07T08:20:14;100521.13;;;5.31;100.00
11114;BME280;5610;52.154;9.198;2022-12-07T08:22:59;100526.50;;;5.30;100.00
11114;BME280;5610;52.154;9.198;2022-12-07T08:25:45;100522.19;;;5.27;100.00
11114;BME280;5610;52.154;9.198;2022-12-07T08:28:30;100521.13;;;5.31;100.00
11114;BME280;5610;52.154;9.198;2022-12-07T08:31:17;100519.22;;;5.35;100.00
11114;BME280;5610;52.154;9.198;2022-12-07T08:34:03;100527.81;;;5.40;100.00
11114;BME280;5610;52.154;9.198;2022-12-07T08:36:49;100527.22;;;5.54;100.00
11114;BME280;5610;52.154;9.198;2022-12-07T08:39:34;100516.47;;;5.58;100.00
11114;BME280;5610;52.154;9.198;2022-12-07T08:42:20;100517.06;;;5.65;100.00
11114;BME280;5610;52.154;9.198;2022-12-07T08:45:09;100519.81;;;5.82;100.00
11114;BME280;5610;52.154;9.198;2022-12-07T08:48:00;100521.63;;;5.82;100.00
11114;BME280;5610;52.154;9.198;2022-12-07T08:50:46;100518.31;;;5.76;100.00
11114;BME280;5610;52.154;9.198;2022-12-07T08:53:34;100525.19;;;5.81;100.00
11114;BME280;5610;52.154;9.198;2022-12-07T08:56:20;100523.84;;;5.92;100.00
11114;BME280;5610;52.154;9.198;2022-12-07T08:59:06;100527.69;;;6.04;100.00
11114;BME280;5610;52.154;9.198;2022-12-07T09:01:52;100516.22;;;6.24;100.00
11114;BME280;5610;52.154;9.198;2022-12-07T09:04:37;100525.28;;;6.18;100.00
11114;BME280;5610;52.154;9.198;2022-12-07T09:07:22;100521.78;;;6.18;100.00
11114;BME280;5610;52.154;9.198;2022-12-07T09:10:09;100528.41;;;6.28;100.00
11114;BME280;5610;52.154;9.198;2022-12-07T09:12:55;100530.19;;;6.27;100.00
11114;BME280;5610;52.154;9.198;2022-12-07T09:15:44;100528.75;;;6.39;100.00
11114;BME280;5610;52.154;9.198;2022-12-07T09:18:29;100539.22;;;6.42;100.00
11114;BME280;5610;52.154;9.198;2022-12-07T09:21:14;100545.69;;;6.16;100.00
11114;BME280;5610;52.154;9.198;2022-12-07T09:23:59;100540.81;;;6.26;100.00
11114;BME280;5610;52.154;9.198;2022-12-07T09:26:45;100537.25;;;6.46;100.00
11114;BME280;5610;52.154;9.198;2022-12-07T09:29:31;100547.19;;;6.41;100.00
11114;BME280;5610;52.154;9.198;2022-12-07T09:32:16;100538.84;;;6.50;100.00
11114;BME280;5610;52.154;9.198;2022-12-07T09:35:01;100535.34;;;6.49;100.00
11114;BME280;5610;52.154;9.198;2022-12-07T09:37:46;100534.41;;;6.50;100.00
11114;BME280;5610;52.154;9.198;2022-12-07T09:40:33;100532.09;;;6.61;100.00
11114;BME280;5610;52.154;9.198;2022-12-07T09:43:22;100538.84;;;6.69;100.00
11114;BME280;5610;52.154;9.198;2022-12-07T09:46:09;100533.78;;;6.64;100.00
11114;BME280;5610;52.154;9.198;2022-12-07T09:48:58;100532.91;;;6.45;100.00
11114;BME280;5610;52.154;9.198;2022-12-07T09:51:44;100526.59;;;6.47;100.00
11114;BME280;5610;52.154;9.198;2022-12-07T09:54:29;100524.75;;;6.68;100.00
11114;BME280;5610;52.154;9.198;2022-12-07T09:57:15;100526.44;;;6.69;100.00
11114;BME280;5610;52.154;9.198;2022-12-07T10:00:05;100522.53;;;7.31;100.00
11114;BME280;5610;52.154;9.198;2022-12-07T10:02:55;100521.47;;;8.69;100.00
11114;BME280;5610;52.154;9.198;2022-12-07T10:05:43;100513.13;;;10.26;100.00
11114;BME280;5610;52.154;9.198;2022-12-07T10:08:29;100516.84;;;10.93;100.00
11114;BME280;5610;52.154;9.198;2022-12-07T10:11:14;100509.63;;;10.39;100.00
11114;BME280;5610;52.154;9.198;2022-12-07T10:14:11;100513.38;;;9.18;100.00
11114;BME280;5610;52.154;9.198;2022-12-07T10:16:59;100508.22;;;9.15;100.00
11114;BME280;5610;52.154;9.198;2022-12-07T10:19:44;100516.25;;;8.84;100.00
11114;BME280;5610;52.154;9.198;2022-12-07T10:22:29;100516.59;;;8.77;100.00
11114;BME280;5610;52.154;9.198;2022-12-07T10:25:19;100511.19;;;8.63;100.00
11114;BME280;5610;52.154;9.198;2022-12-07T10:28:13;100514.13;;;8.25;100.00
11114;BME280;5610;52.154;9.198;2022-12-07T10:31:01;100509.13;;;8.19;100.00
11114;BME280;5610;52.154;9.198;2022-12-07T10:33:53;100512.72;;;7.85;100.00
11114;BME280;5610;52.154;9.198;2022-12-07T10:36:39;100505.88;;;7.64;100.00
11114;BME280;5610;52.154;9.198;2022-12-07T10:39:24;100504.75;;;7.68;100.00
11114;BME280;5610;52.154;9.198;2022-12-07T10:42:17;100500.97;;;7.56;100.00
11114;BME280;5610;52.154;9.198;2022-12-07T10:45:12;100504.06;;;7.64;100.00
11114;BME280;5610;52.154;9.198;2022-12-07T10:48:03;100504.47;;;7.57;100.00
11114;BME280;5610;52.154;9.198;2022-12-07T10:51:02;100494.34;;;7.48;100.00
11114;BME280;5610;52.154;9.198;2022-12-07T10:53:59;100506.81;;;7.28;100.00
11114;BME280;5610;52.154;9.198;2022-12-07T10:56:58;100496.91;;;7.49;100.00
11114;BME280;5610;52.154;9.198;2022-12-07T11:00:03;100499.31;;;7.19;100.00
11114;BME280;5610;52.154;9.198;2022-12-07T11:03:22;100488.94;;;7.14;100.00
11114;BME280;5610;52.154;9.198;2022-12-07T11:06:16;100488.72;;;7.36;100.00
11114;BME280;5610;52.154;9.198;2022-12-07T11:12:35;100484.59;;;8.32;100.00
11114;BME280;5610;52.154;9.198;2022-12-07T11:15:26;100487.03;;;9.74;100.00
11114;BME280;5610;52.154;9.198;2022-12-07T11:18:17;100472.09;;;10.57;100.00
11114;BME280;5610;52.154;9.198;2022-12-07T11:21:11;100465.34;;;13.07;90.53
11114;BME280;5610;52.154;9.198;2022-12-07T11:24:06;100463.09;;;14.07;75.96
11114;BME280;5610;52.154;9.198;2022-12-07T11:27:06;100477.59;;;13.58;73.61
11114;BME280;5610;52.154;9.198;2022-12-07T11:30:03;100462.22;;;12.29;79.49
11114;BME280;5610;52.154;9.198;2022-12-07T11:33:08;100457.84;;;11.77;81.92
11114;BME280;5610;52.154;9.198;2022-12-07T11:36:02;100455.28;;;11.10;86.85
11114;BME280;5610;52.154;9.198;2022-12-07T11:38:53;100445.34;;;10.85;92.31
11114;BME280;5610;52.154;9.198;2022-12-07T11:41:42;100438.56;;;10.11;94.03
11114;BME280;5610;52.154;9.198;2022-12-07T11:44:32;100442.75;;;9.58;100.00
11114;BME280;5610;52.154;9.198;2022-12-07T11:47:23;100447.88;;;9.61;100.00
11114;BME280;5610;52.154;9.198;2022-12-07T11:50:23;100438.59;;;9.24;100.00
11114;BME280;5610;52.154;9.198;2022-12-07T11:53:15;100445.09;;;8.89;100.00
11114;BME280;5610;52.154;9.198;2022-12-07T11:56:05;100443.09;;;8.46;100.00
11114;BME280;5610;52.154;9.198;2022-12-07T11:58:57;100437.28;;;8.07;100.00
11114;BME280;5610;52.154;9.198;2022-12-07T12:01:52;100452.03;;;8.28;100.00
11114;BME280;5610;52.154;9.198;2022-12-07T12:04:48;100438.03;;;8.09;100.00
11114;BME280;5610;52.154;9.198;2022-12-07T12:07:36;100438.75;;;8.28;100.00
11114;BME280;5610;52.154;9.198;2022-12-07T12:10:29;100424.53;;;8.29;100.00
11114;BME280;5610;52.154;9.198;2022-12-07T12:16:44;100425.44;;;8.61;100.00
11114;BME280;5610;52.154;9.198;2022-12-07T12:19:35;100421.53;;;8.83;100.00
11114;BME280;5610;52.154;9.198;2022-12-07T12:22:27;100419.16;;;8.78;100.00
11114;BME280;5610;52.154;9.198;2022-12-07T12:25:21;100422.84;;;8.60;100.00
11114;BME280;5610;52.154;9.198;2022-12-07T12:28:20;100423.34;;;8.35;100.00
11114;BME280;5610;52.154;9.198;2022-12-07T12:31:10;100418.47;;;8.11;100.00
11114;BME280;5610;52.154;9.198;2022-12-07T12:34:00;100424.06;;;7.56;100.00
11114;BME280;5610;52.154;9.198;2022-12-07T12:36:46;100420.56;;;7.38;100.00
11114;BME280;5610;52.154;9.198;2022-12-07T12:39:32;100422.41;;;7.21;100.00
11114;BME280;5610;52.154;9.198;2022-12-07T12:42:18;100414.44;;;7.21;100.00
11114;BME280;5610;52.154;9.198;2022-12-07T12:45:18;100414.69;;;7.33;100.00
11114;BME280;5610;52.154;9.198;2022-12-07T12:48:04;100411.53;;;7.25;100.00
11114;BME280;5610;52.154;9.198;2022-12-07T12:51:35;100410.50;;;7.62;100.00
11114;BME280;5610;52.154;9.198;2022-12-07T12:54:22;100404.50;;;7.75;100.00
11114;BME280;5610;52.154;9.198;2022-12-07T12:57:13;100418.97;;;7.69;100.00
11114;BME280;5610;52.154;9.198;2022-12-07T13:00:12;100410.03;;;7.87;100.00
11114;BME280;5610;52.154;9.198;2022-12-07T13:03:00;100412.13;;;7.65;100.00
11114;BME280;5610;52.154;9.198;2022-12-07T13:05:46;100412.47;;;7.41;100.00
11114;BME280;5610;52.154;9.198;2022-12-07T13:08:34;100394.25;;;7.35;100.00
11114;BME280;5610;52.154;9.198;2022-12-07T13:11:28;100395.47;;;7.46;100.00
11114;BME280;5610;52.154;9.198;2022-12-07T13:17:57;100394.44;;;7.81;100.00
11114;BME280;5610;52.154;9.198;2022-12-07T13:20:53;100389.84;;;8.01;100.00
11114;BME280;5610;52.154;9.198;2022-12-07T13:23:54;100392.50;;;8.16;100.00
11114;BME280;5610;52.154;9.198;2022-12-07T13:26:42;100391.75;;;8.30;100.00
11114;BME280;5610;52.154;9.198;2022-12-07T13:29:36;100381.13;;;8.14;100.00
11114;BME280;5610;52.154;9.198;2022-12-07T13:32:24;100387.81;;;8.37;100.00
11114;BME280;5610;52.154;9.198;2022-12-07T13:35:32;100379.53;;;8.89;100.00
11114;BME280;5610;52.154;9.198;2022-12-07T13:38:28;100377.59;;;9.21;100.00
11114;BME280;5610;52.154;9.198;2022-12-07T13:41:17;100372.25;;;9.07;100.00
11114;BME280;5610;52.154;9.198;2022-12-07T13:44:09;100375.25;;;8.87;100.00
11114;BME280;5610;52.154;9.198;2022-12-07T13:47:00;100371.56;;;8.43;100.00
11114;BME280;5610;52.154;9.198;2022-12-07T13:49:50;100377.88;;;8.57;100.00
11114;BME280;5610;52.154;9.198;2022-12-07T13:52:43;100379.94;;;8.20;100.00
11114;BME280;5610;52.154;9.198;2022-12-07T13:55:30;100370.66;;;7.95;100.00
11114;BME280;5610;52.154;9.198;2022-12-07T13:58:17;100378.91;;;7.58;100.00
11114;BME280;5610;52.154;9.198;2022-12-07T14:01:02;100369.97;;;7.43;100.00
11114;BME280;5610;52.154;9.198;2022-12-07T14:03:47;100377.41;;;7.36;100.00
11114;BME280;5610;52.154;9.198;2022-12-07T14:06:32;100384.22;;;7.07;100.00
11114;BME280;5610;52.154;9.198;2022-12-07T14:09:20;100382.09;;;6.97;100.00
11114;BME280;5610;52.154;9.198;2022-12-07T14:12:06;100384.59;;;7.00;100.00
11114;BME280;5610;52.154;9.198;2022-12-07T14:14:53;100368.84;;;6.79;100.00
11114;BME280;5610;52.154;9.198;2022-12-07T14:17:50;100362.00;;;6.93;100.00
11114;BME280;5610;52.154;9.198;2022-12-07T14:20:37;100365.97;;;7.01;100.00
11114;BME280;5610;52.154;9.198;2022-12-07T14:23:24;100358.41;;;6.76;100.00
11114;BME280;5610;52.154;9.198;2022-12-07T14:26:12;100358.81;;;6.86;100.00
11114;BME280;5610;52.154;9.198;2022-12-07T14:29:19;100359.13;;;6.80;100.00
11114;BME280;5610;52.154;9.198;2022-12-07T14:32:18;100353.53;;;6.86;100.00
11114;BME280;5610;52.154;9.198;2022-12-07T14:35:10;100362.72;;;6.79;100.00
11114;BME280;5610;52.154;9.198;2022-12-07T14:37:56;100360.34;;;6.90;100.00
11114;BME280;5610;52.154;9.198;2022-12-07T14:40:41;100358.94;;;6.83;100.00
11114;BME280;5610;52.154;9.198;2022-12-07T14:43:26;100354.97;;;6.74;100.00
11114;BME280;5610;52.154;9.198;2022-12-07T14:46:12;100356.41;;;6.64;100.00
11114;BME280;5610;52.154;9.198;2022-12-07T14:48:58;100352.09;;;6.61;100.00
11114;BME280;5610;52.154;9.198;2022-12-07T14:51:45;100352.16;;;6.60;100.00
11114;BME280;5610;52.154;9.198;2022-12-07T14:54:31;100358.00;;;6.49;100.00
11114;BME280;5610;52.154;9.198;2022-12-07T14:57:17;100355.75;;;6.42;100.00
11114;BME280;5610;52.154;9.198;2022-12-07T15:00:03;100362.09;;;6.38;100.00
11114;BME280;5610;52.154;9.198;2022-12-07T15:02:50;100360.31;;;6.38;100.00
11114;BME280;5610;52.154;9.198;2022-12-07T15:05:37;100356.91;;;6.36;100.00
11114;BME280;5610;52.154;9.198;2022-12-07T15:08:22;100364.09;;;6.32;100.00
11114;BME280;5610;52.154;9.198;2022-12-07T15:11:09;100365.97;;;6.30;100.00